Time;durP1;ratioP1;P1;durP2;ratioP2;P2;SDS_P1;SDS_P2;PMS_P1;PMS_P2;Temp;Humidity;BMP_temperature;BMP_pressure;BME280_temperature;BME280_humidity;BME280_pressure;Samples;Min_cycle;Max_cycle;Signal;HPM_P1;HPM_P2
2024/01/15 00:02:03;;;;;;;3.83;2.30;;;;;;;4.53;66.79;98923.91;5043619;28;20036;-40
2024/01/15 00:04:28;;;;;;;1.38;1.17;;;;;;;4.43;66.66;98921.03;5041596;28;20086;-40
2024/01/15 00:06:53;;;;;;;2.25;1.45;;;;;;;4.48;66.82;98910.31;5039643;28;20082;-40
2024/01/15 00:09:19;;;;;;;6.75;3.15;;;;;;;4.13;67.21;98908.94;5040451;28;20041;-40
2024/01/15 00:11:46;;;;;;;1.90;1.20;;;;;;;4.57;66.57;98913.19;5035853;28;20116;-40
2024/01/15 00:14:11;;;;;;;1.30;0.80;;;;;;;4.50;66.61;98904.06;5040238;28;20030;-40
2024/01/15 00:16:37;;;;;;;1.10;0.50;;;;;;;4.57;66.48;98905.38;5044190;28;20032;-41
2024/01/15 00:19:02;;;;;;;3.55;2.25;;;;;;;4.65;66.13;98891.00;5042894;28;20372;-40
2024/01/15 00:21:28;;;;;;;1.13;1.08;;;;;;;4.75;66.25;98893.88;5038378;28;20070;-39
2024/01/15 00:23:53;;;;;;;1.98;1.05;;;;;;;4.29;66.46;98877.59;5024449;28;20440;-40
2024/01/15 00:26:19;;;;;;;0.88;0.52;;;;;;;4.56;66.47;98885.47;5038665;28;20071;-40
2024/01/15 00:28:44;;;;;;;3.45;3.03;;;;;;;4.55;66.63;98875.97;5038981;28;20120;-39
2024/01/15 00:31:09;;;;;;;0.75;0.55;;;;;;;4.53;66.88;98871.81;5025419;28;20557;-39
2024/01/15 00:33:35;;;;;;;2.20;1.20;;;;;;;4.45;67.23;98864.47;5042752;28;20377;-40
2024/01/15 00:36:00;;;;;;;2.08;1.75;;;;;;;4.56;67.23;98856.81;5047564;28;20045;-40
2024/01/15 00:38:26;;;;;;;0.57;0.40;;;;;;;4.20;67.29;98854.72;5043537;28;20115;-41
2024/01/15 00:40:51;;;;;;;2.53;2.30;;;;;;;4.48;67.63;98858.22;5046777;28;20024;-40
2024/01/15 00:43:19;;;;;;;0.65;0.65;;;;;;;4.43;67.58;98861.94;5045097;28;20590;-40
2024/01/15 00:45:45;;;;;;;3.30;3.00;;;;;;;4.46;67.61;98845.31;5047089;28;20423;-40
2024/01/15 00:48:10;;;;;;;0.50;0.40;;;;;;;4.45;68.00;98851.44;5027448;28;20541;-41
2024/01/15 00:50:36;;;;;;;1.45;1.10;;;;;;;4.32;67.78;98845.31;5045980;28;20099;-39
2024/01/15 00:53:01;;;;;;;2.30;1.20;;;;;;;4.36;67.92;98833.78;5049597;28;20484;-40
2024/01/15 00:55:28;;;;;;;0.88;0.85;;;;;;;4.09;68.76;98831.97;5028241;28;20079;-39
2024/01/15 00:57:54;;;;;;;4.00;1.70;;;;;;;4.10;68.71;98828.44;5045653;28;20092;-41
2024/01/15 01:00:19;;;;;;;1.50;1.05;;;;;;;3.93;68.42;98819.88;5046060;28;20032;-40
2024/01/15 01:02:45;;;;;;;0.52;0.50;;;;;;;4.39;68.18;98817.97;5044729;28;20029;-40
2024/01/15 01:05:10;;;;;;;4.40;3.10;;;;;;;4.30;68.45;98818.56;5046403;28;20040;-40
2024/01/15 01:07:36;;;;;;;0.10;0.10;;;;;;;4.22;68.44;98817.25;5048138;28;20033;-40
2024/01/15 01:10:01;;;;;;;3.40;2.90;;;;;;;3.82;69.14;98824.91;5047399;28;20075;-41
2024/01/15 01:12:27;;;;;;;2.28;1.15;;;;;;;3.96;69.73;98821.44;5027131;28;20083;-40
2024/01/15 01:14:52;;;;;;;0.93;0.68;;;;;;;4.08;69.47;98825.06;5041712;28;20033;-40
2024/01/15 01:17:18;;;;;;;0.08;0.08;;;;;;;4.24;69.38;98828.41;5047083;28;20097;-40
2024/01/15 01:19:43;;;;;;;2.80;2.38;;;;;;;4.12;69.47;98827.38;5045861;28;20036;-40
2024/01/15 01:22:08;;;;;;;0.63;0.43;;;;;;;4.29;69.06;98822.09;5045805;28;20081;-40
2024/01/15 01:24:34;;;;;;;0.75;0.75;;;;;;;3.96;69.58;98822.31;5042549;28;20033;-40
2024/01/15 01:26:59;;;;;;;0.45;0.32;;;;;;;4.07;69.27;98820.81;5042450;28;20045;-40
2024/01/15 01:29:26;;;;;;;0.35;0.30;;;;;;;4.30;69.06;98823.75;5028675;28;20068;-39
2024/01/15 01:31:51;;;;;;;0.43;0.32;;;;;;;4.06;69.50;98832.13;5042614;28;20032;-40
2024/01/15 01:34:17;;;;;;;0.60;0.40;;;;;;;4.09;69.33;98822.38;5040596;28;20048;-40
2024/01/15 01:36:43;;;;;;;2.63;1.02;;;;;;;4.09;69.55;98816.34;5037505;28;20478;-39
2024/01/15 01:39:09;;;;;;;3.63;1.88;;;;;;;3.91;69.64;98808.72;5045123;28;20025;-39
2024/01/15 01:41:34;;;;;;;1.60;0.80;;;;;;;3.51;71.10;98801.56;5039731;28;20168;-41
2024/01/15 01:44:00;;;;;;;1.02;0.80;;;;;;;3.51;71.22;98800.75;5037840;28;20032;-40
2024/01/15 01:46:27;;;;;;;3.13;2.00;;;;;;;3.49;71.20;98800.81;5039032;28;20064;-40
2024/01/15 01:48:54;;;;;;;4.13;2.08;;;;;;;3.45;71.28;98801.09;5041676;28;20396;-40
2024/01/15 01:51:21;;;;;;;0.20;0.20;;;;;;;3.75;70.84;98802.78;5045051;28;20115;-40
2024/01/15 01:53:47;;;;;;;0.45;0.40;;;;;;;3.75;70.45;98824.44;5042726;28;20106;-40
2024/01/15 01:56:14;;;;;;;0.85;0.70;;;;;;;3.76;70.21;98820.06;5039936;28;20116;-41
2024/01/15 01:58:39;;;;;;;0.82;0.80;;;;;;;3.49;69.62;98824.22;5040659;28;20056;-40
2024/01/15 02:01:05;;;;;;;1.38;0.95;;;;;;;3.77;70.19;98816.53;5040600;28;20518;-40
2024/01/15 02:03:30;;;;;;;3.30;3.03;;;;;;;3.81;69.64;98818.84;5043608;28;20409;-40
2024/01/15 02:05:56;;;;;;;2.17;0.75;;;;;;;3.29;69.01;98804.59;5044392;28;20044;-41
2024/01/15 02:08:22;;;;;;;2.08;1.45;;;;;;;3.49;69.71;98808.63;5023332;28;20033;-40
2024/01/15 02:10:48;;;;;;;3.45;2.05;;;;;;;3.26;69.58;98803.94;5039223;28;20026;-40
2024/01/15 02:13:13;;;;;;;0.40;0.35;;;;;;;3.64;69.22;98801.69;5040712;28;20446;-40
2024/01/15 02:15:40;;;;;;;4.85;2.92;;;;;;;3.56;68.83;98798.69;5044503;28;20039;-39
2024/01/15 02:18:10;;;;;;;0.95;0.77;;;;;;;3.84;67.98;98791.84;5038776;28;20029;-40
2024/01/15 02:20:36;;;;;;;0.68;0.43;;;;;;;3.71;68.23;98790.88;5039961;28;20036;-40
2024/01/15 02:23:09;;;;;;;2.53;2.03;;;;;;;3.79;67.39;98778.25;5044133;28;20024;-40
2024/01/15 02:25:39;;;;;;;0.10;0.10;;;;;;;3.75;67.60;98798.44;5043458;28;20032;-40
2024/01/15 02:28:07;;;;;;;0.50;0.47;;;;;;;3.84;67.24;98790.97;5043058;28;20039;-40
2024/01/15 02:30:37;;;;;;;0.90;0.55;;;;;;;3.74;67.01;98785.50;5043101;28;20039;-40
2024/01/15 02:33:03;;;;;;;0.17;0.17;;;;;;;3.74;66.81;98790.69;5041699;28;20502;-40
2024/01/15 02:35:28;;;;;;;4.40;1.58;;;;;;;3.35;67.89;98786.06;5042129;28;20103;-39
2024/01/15 02:37:53;;;;;;;0.65;0.45;;;;;;;3.77;67.08;98785.31;5043990;28;20112;-42
2024/01/15 02:40:19;;;;;;;0.57;0.47;;;;;;;3.88;66.23;98788.09;5042922;28;20399;-40
2024/01/15 02:42:44;;;;;;;0.68;0.45;;;;;;;4.01;65.40;98766.53;5042953;28;20036;-40
2024/01/15 02:45:09;;;;;;;1.17;0.70;;;;;;;3.81;65.92;98786.81;5037738;28;20108;-40
2024/01/15 02:47:35;;;;;;;0.40;0.40;;;;;;;3.86;65.76;98784.75;5039833;28;20032;-40
2024/01/15 02:50:00;;;;;;;2.30;1.85;;;;;;;3.72;66.13;98787.34;5043453;28;20057;-39
2024/01/15 02:52:26;;;;;;;1.08;0.95;;;;;;;3.66;65.67;98779.00;5038425;28;20526;-40
2024/01/15 02:54:51;;;;;;;0.40;0.35;;;;;;;3.75;65.73;98777.63;5036400;28;20072;-39
2024/01/15 02:57:16;;;;;;;0.43;0.38;;;;;;;3.94;65.59;98760.84;5042078;28;20025;-40
2024/01/15 02:59:42;;;;;;;5.68;1.67;;;;;;;3.86;65.73;98763.94;5040150;28;20045;-39
2024/01/15 03:02:07;;;;;;;0.52;0.50;;;;;;;3.77;65.77;98774.91;5042902;28;20423;-40
2024/01/15 03:04:32;;;;;;;1.60;0.77;;;;;;;3.72;65.59;98757.00;5041245;28;20033;-39
2024/01/15 03:06:58;;;;;;;1.55;0.68;;;;;;;3.88;65.65;98748.25;5044268;28;20033;-39
2024/01/15 03:09:23;;;;;;;2.10;0.90;;;;;;;3.95;65.36;98755.56;5043726;28;20060;-39
2024/01/15 03:11:48;;;;;;;1.38;0.85;;;;;;;3.86;65.29;98743.13;5039850;28;20028;-40
2024/01/15 03:14:14;;;;;;;4.95;3.13;;;;;;;3.75;65.56;98719.53;5041271;28;20806;-40
2024/01/15 03:16:40;;;;;;;0.32;0.30;;;;;;;3.89;65.27;98726.50;5040213;28;20029;-40
2024/01/15 03:19:05;;;;;;;25.50;1.27;;;;;;;3.87;65.98;98726.56;5039702;28;20080;-40
2024/01/15 03:21:30;;;;;;;0.30;0.28;;;;;;;4.01;65.62;98715.31;5042311;28;20102;-40
2024/01/15 03:23:56;;;;;;;1.73;1.60;;;;;;;3.96;65.62;98717.34;5043703;28;20037;-40
2024/01/15 03:26:21;;;;;;;1.17;0.90;;;;;;;4.00;65.46;98710.22;5040172;28;20068;-41
2024/01/15 03:28:47;;;;;;;1.13;0.70;;;;;;;3.70;65.80;98706.00;5023343;28;20126;-40
2024/01/15 03:31:12;;;;;;;0.15;0.15;;;;;;;3.76;65.42;98716.00;5041629;28;20043;-40
2024/01/15 03:33:37;;;;;;;0.30;0.28;;;;;;;3.93;65.60;98701.97;5041938;28;20056;-40
2024/01/15 03:36:03;;;;;;;1.23;0.60;;;;;;;3.92;65.70;98693.31;5041257;28;20033;-40
2024/01/15 03:38:28;;;;;;;0.10;0.10;;;;;;;4.01;65.31;98696.28;5042540;28;20028;-40
2024/01/15 03:40:54;;;;;;;7.13;4.15;;;;;;;4.07;65.20;98690.66;5039789;28;20040;-40
2024/01/15 03:43:19;;;;;;;0.47;0.47;;;;;;;3.90;65.16;98702.97;5039003;28;20028;-40
2024/01/15 03:45:45;;;;;;;0.22;0.22;;;;;;;3.93;65.77;98697.56;5022792;28;20617;-40
2024/01/15 03:48:11;;;;;;;0.93;0.65;;;;;;;4.00;65.66;98689.41;5042341;28;20044;-39
2024/01/15 03:50:36;;;;;;;0.50;0.47;;;;;;;3.95;65.88;98690.50;5041226;28;24035;-39
2024/01/15 03:53:02;;;;;;;3.05;1.13;;;;;;;3.87;65.88;98703.16;5038492;28;20032;-40
2024/01/15 03:55:27;;;;;;;1.20;0.40;;;;;;;3.80;65.59;98689.69;5038585;28;20036;-40
2024/01/15 03:57:52;;;;;;;0.77;0.77;;;;;;;4.03;65.24;98676.16;5039501;28;20079;-41
2024/01/15 04:00:18;;;;;;;0.20;0.20;;;;;;;4.05;65.13;98671.69;5038657;28;20064;-42
2024/01/15 04:02:44;;;;;;;1.42;1.00;;;;;;;4.15;65.22;98672.81;5040735;28;20057;-40
2024/01/15 04:05:10;;;;;;;0.40;0.30;;;;;;;4.24;65.45;98669.59;5040273;28;20112;-40
2024/01/15 04:07:35;;;;;;;0.73;0.60;;;;;;;4.03;65.49;98670.97;5045741;28;20086;-40
2024/01/15 04:10:00;;;;;;;0.35;0.30;;;;;;;3.99;65.88;98662.53;5048593;28;20029;-40
2024/01/15 04:12:26;;;;;;;0.30;0.30;;;;;;;4.10;65.87;98667.03;5046002;28;20285;-39
2024/01/15 04:14:51;;;;;;;0.90;0.50;;;;;;;4.08;65.82;98669.72;5044194;28;20484;-42
2024/01/15 04:17:17;;;;;;;5.95;0.88;;;;;;;3.98;65.78;98663.44;5045230;28;20597;-40
2024/01/15 04:19:44;;;;;;;0.22;0.22;;;;;;;3.88;66.09;98686.63;5041747;28;20056;-40
2024/01/15 04:22:09;;;;;;;0.95;0.90;;;;;;;3.92;65.99;98658.66;5046241;28;20024;-41
2024/01/15 04:24:35;;;;;;;4.45;0.63;;;;;;;3.93;66.55;98652.53;5023733;28;20037;-40
2024/01/15 04:27:00;;;;;;;0.73;0.57;;;;;;;3.86;66.91;98648.63;5041198;28;20075;-40
2024/01/15 04:29:26;;;;;;;0.38;0.30;;;;;;;3.83;66.18;98648.81;5042634;28;20495;-40
2024/01/15 04:31:52;;;;;;;0.55;0.35;;;;;;;3.96;65.96;98642.75;5041827;28;20137;-41
2024/01/15 04:34:18;;;;;;;0.77;0.65;;;;;;;4.04;65.76;98639.66;5044243;28;20094;-40
2024/01/15 04:36:43;;;;;;;2.30;0.55;;;;;;;4.05;65.77;98630.06;5047961;28;20032;-40
2024/01/15 04:39:09;;;;;;;1.90;1.65;;;;;;;3.99;65.37;98617.47;5042723;28;20045;-40
2024/01/15 04:41:34;;;;;;;2.03;1.48;;;;;;;3.89;65.66;98627.63;5043406;28;20045;-41
2024/01/15 04:44:00;;;;;;;0.85;0.75;;;;;;;4.08;65.16;98620.28;5045756;28;20032;-40
2024/01/15 04:46:25;;;;;;;0.70;0.65;;;;;;;3.80;65.73;98623.84;5042048;28;20040;-41
2024/01/15 04:48:51;;;;;;;0.82;0.82;;;;;;;3.96;64.64;98636.69;5049814;28;20123;-40
2024/01/15 04:51:16;;;;;;;1.52;1.42;;;;;;;4.04;64.46;98612.78;5043379;28;20033;-40
2024/01/15 04:53:41;;;;;;;2.25;0.50;;;;;;;4.03;64.60;98608.50;5043295;28;20033;-40
2024/01/15 04:56:07;;;;;;;1.70;1.60;;;;;;;4.12;64.37;98611.34;5042737;28;20037;-40
2024/01/15 04:58:32;;;;;;;1.08;0.82;;;;;;;4.10;63.99;98601.97;5041331;28;20503;-39
2024/01/15 05:00:57;;;;;;;0.57;0.38;;;;;;;4.07;64.06;98608.22;5043631;28;20432;-39
2024/01/15 05:03:23;;;;;;;1.38;1.30;;;;;;;3.80;64.47;98603.03;5045845;28;20043;-39
2024/01/15 05:05:48;;;;;;;3.08;1.20;;;;;;;3.74;64.90;98611.22;5042213;28;20044;-39
2024/01/15 05:08:14;;;;;;;0.65;0.60;;;;;;;3.84;64.29;98619.25;5042452;28;20041;-39
2024/01/15 05:10:39;;;;;;;3.00;1.85;;;;;;;3.80;64.78;98622.06;5043584;28;20090;-41
2024/01/15 05:13:04;;;;;;;7.28;1.40;;;;;;;4.00;63.97;98608.72;5042032;28;21081;-39
2024/01/15 05:15:30;;;;;;;0.80;0.80;;;;;;;3.65;64.60;98626.47;5039100;28;20036;-39
2024/01/15 05:17:55;;;;;;;2.53;0.70;;;;;;;3.96;64.21;98608.91;5046753;28;20029;-41
2024/01/15 05:20:21;;;;;;;0.50;0.50;;;;;;;3.59;65.14;98600.03;5046667;28;20029;-40
2024/01/15 05:22:47;;;;;;;6.85;1.17;;;;;;;3.73;64.66;98615.59;5044495;28;20044;-40
2024/01/15 05:25:12;;;;;;;0.43;0.40;;;;;;;3.78;65.04;98607.50;5046404;28;20037;-39
2024/01/15 05:27:37;;;;;;;2.20;2.00;;;;;;;3.83;64.91;98587.22;5027804;28;20068;-40
2024/01/15 05:30:03;;;;;;;1.85;1.08;;;;;;;3.81;64.74;98613.31;5046542;28;20031;-40
2024/01/15 05:32:29;;;;;;;0.38;0.38;;;;;;;3.79;64.15;98609.16;5040115;28;20040;-40
2024/01/15 05:34:54;;;;;;;0.20;0.20;;;;;;;4.17;63.94;98608.44;5044543;28;20399;-39
2024/01/15 05:37:20;;;;;;;0.88;0.63;;;;;;;4.14;63.87;98593.03;5047017;28;20037;-40
2024/01/15 05:39:45;;;;;;;7.57;1.75;;;;;;;3.83;64.08;98609.78;5041540;28;20109;-40
2024/01/15 05:42:10;;;;;;;2.53;0.93;;;;;;;3.77;64.32;98614.47;5044515;28;20411;-39
2024/01/15 05:44:36;;;;;;;1.75;0.82;;;;;;;4.11;63.77;98590.63;5044761;28;20036;-40
2024/01/15 05:47:02;;;;;;;2.10;0.90;;;;;;;3.62;64.21;98590.25;5037582;28;20144;-40
2024/01/15 05:49:28;;;;;;;0.22;0.22;;;;;;;4.14;63.57;98600.84;5046809;28;20090;-40
2024/01/15 05:51:53;;;;;;;0.30;0.30;;;;;;;3.96;67.66;98602.84;5039348;28;20083;-39
2024/01/15 05:54:19;;;;;;;6.13;1.20;;;;;;;4.16;64.26;98582.50;5037136;28;20033;-40
2024/01/15 05:56:45;;;;;;;2.40;1.75;;;;;;;4.22;63.84;98575.13;5034899;28;20068;-40
2024/01/15 05:59:10;;;;;;;0.73;0.50;;;;;;;4.07;64.06;98599.56;5042070;28;20573;-40
2024/01/15 06:01:35;;;;;;;0.60;0.40;;;;;;;3.93;64.14;98593.50;5042130;28;20036;-41
2024/01/15 06:04:01;;;;;;;0.43;0.38;;;;;;;3.96;64.87;98588.09;5040372;28;20044;-40
2024/01/15 06:06:27;;;;;;;11.13;1.25;;;;;;;3.82;64.84;98585.56;5025226;28;20068;-40
2024/01/15 06:08:52;;;;;;;0.60;0.45;;;;;;;3.92;64.85;98591.81;5046778;28;20471;-40
2024/01/15 06:11:18;;;;;;;0.10;0.10;;;;;;;4.07;65.09;98583.94;5040593;28;20059;-40
2024/01/15 06:13:44;;;;;;;0.40;0.40;;;;;;;4.10;64.89;98568.13;5038117;28;20037;-40
2024/01/15 06:16:16;;;;;;;1.85;1.30;;;;;;;4.02;65.26;98586.00;5045077;28;20029;-40
2024/01/15 06:18:42;;;;;;;0.77;0.52;;;;;;;3.97;65.21;98589.75;5040378;28;20503;-39
2024/01/15 06:21:10;;;;;;;0.70;0.45;;;;;;;4.03;65.48;98580.72;5043350;28;20059;-42
2024/01/15 06:23:35;;;;;;;0.85;0.43;;;;;;;4.17;65.23;98579.78;5041288;28;20461;-41
2024/01/15 06:26:03;;;;;;;0.20;0.20;;;;;;;4.09;65.69;98595.09;5041198;28;20044;-40
2024/01/15 06:28:29;;;;;;;0.10;0.10;;;;;;;4.05;66.78;98591.03;5039124;28;20388;-40
2024/01/15 06:30:54;;;;;;;1.13;1.05;;;;;;;3.99;67.71;98589.66;5045935;28;20036;-39
2024/01/15 06:33:19;;;;;;;3.50;0.82;;;;;;;3.62;69.18;98586.84;5037505;28;20089;-41
2024/01/15 06:35:45;;;;;;;2.28;1.33;;;;;;;3.77;67.83;98587.59;5046671;28;20041;-41
2024/01/15 06:38:10;;;;;;;0.32;0.32;;;;;;;3.57;67.38;98591.47;5046292;28;20032;-41
2024/01/15 06:40:35;;;;;;;1.65;0.95;;;;;;;3.53;67.96;98590.84;5048877;28;20039;-39
2024/01/15 06:43:01;;;;;;;2.05;0.50;;;;;;;3.77;67.09;98603.22;5027961;28;20580;-40
2024/01/15 06:45:26;;;;;;;0.38;0.38;;;;;;;3.78;66.92;98599.69;5048156;28;20032;-40
2024/01/15 06:47:51;;;;;;;0.20;0.20;;;;;;;3.75;66.44;98589.47;5046706;28;20033;-40
2024/01/15 06:50:17;;;;;;;1.65;0.50;;;;;;;3.78;66.10;98604.88;5047929;28;20149;-40
2024/01/15 06:52:42;;;;;;;0.63;0.57;;;;;;;3.87;65.86;98595.66;5042799;28;20041;-40
2024/01/15 06:55:08;;;;;;;0.77;0.50;;;;;;;3.85;64.98;98600.13;5043480;28;20614;-40
2024/01/15 06:57:33;;;;;;;0.13;0.13;;;;;;;3.89;65.11;98594.63;5043107;28;20025;-39
2024/01/15 06:59:59;;;;;;;1.50;0.77;;;;;;;4.12;64.00;98602.72;5047502;28;20021;-40
2024/01/15 07:02:24;;;;;;;1.23;0.50;;;;;;;4.03;63.64;98603.28;5039210;28;20052;-40
2024/01/15 07:04:49;;;;;;;1.70;1.00;;;;;;;3.91;62.96;98603.16;5040845;28;20029;-40
2024/01/15 07:07:15;;;;;;;1.85;0.90;;;;;;;3.62;63.76;98621.47;5042687;28;20080;-40
2024/01/15 07:09:40;;;;;;;4.03;2.40;;;;;;;4.08;63.12;98620.28;5041178;28;20036;-39
2024/01/15 07:12:06;;;;;;;0.30;0.30;;;;;;;3.88;63.67;98612.94;5040850;28;20075;-40
2024/01/15 07:14:31;;;;;;;0.15;0.13;;;;;;;3.86;63.64;98618.22;5041922;28;20034;-40
2024/01/15 07:16:57;;;;;;;0.57;0.43;;;;;;;3.86;63.16;98628.63;5035628;28;20033;-39
2024/01/15 07:19:22;;;;;;;0.60;0.35;;;;;;;3.93;63.48;98614.31;5044704;28;20555;-39
2024/01/15 07:21:47;;;;;;;0.55;0.55;;;;;;;4.03;63.34;98613.69;5044182;28;20029;-39
2024/01/15 07:24:13;;;;;;;0.90;0.57;;;;;;;4.26;62.37;98630.44;5039464;28;20045;-40
2024/01/15 07:26:39;;;;;;;0.10;0.10;;;;;;;3.98;62.68;98632.22;5040847;28;20086;-40
2024/01/15 07:29:04;;;;;;;0.55;0.32;;;;;;;4.06;62.21;98639.53;5040376;28;20490;-40
2024/01/15 07:31:30;;;;;;;0.95;0.50;;;;;;;4.10;62.57;98644.44;5037396;28;20033;-40
2024/01/15 07:33:55;;;;;;;2.00;1.30;;;;;;;3.96;63.02;98637.53;5044270;28;20542;-40
2024/01/15 07:36:21;;;;;;;0.40;0.32;;;;;;;3.88;63.24;98647.59;5040991;28;20037;-40
2024/01/15 07:38:46;;;;;;;0.40;0.40;;;;;;;4.02;63.45;98648.47;5039279;28;20041;-40
2024/01/15 07:41:13;;;;;;;0.32;0.28;;;;;;;3.98;64.13;98663.44;5041569;28;20040;-40
2024/01/15 07:43:38;;;;;;;0.32;0.25;;;;;;;4.00;64.32;98660.78;5045671;28;20519;-39
2024/01/15 07:46:04;;;;;;;1.60;0.90;;;;;;;3.89;65.56;98649.25;5046950;28;20079;-40
2024/01/15 07:48:29;;;;;;;0.45;0.30;;;;;;;4.16;64.47;98652.78;5043440;28;20452;-41
2024/01/15 07:50:55;;;;;;;0.30;0.30;;;;;;;3.91;65.21;98652.59;5046712;28;20195;-40
2024/01/15 07:53:20;;;;;;;0.47;0.30;;;;;;;4.18;64.63;98659.56;5043057;28;20068;-40
2024/01/15 07:55:46;;;;;;;0.40;0.40;;;;;;;4.00;64.26;98650.38;5047499;28;20056;-40
2024/01/15 07:58:11;;;;;;;0.30;0.30;;;;;;;4.09;63.27;98644.56;5046411;28;20547;-40
2024/01/15 08:00:37;;;;;;;1.45;0.60;;;;;;;4.01;63.28;98667.66;5024393;28;20033;-40
2024/01/15 08:03:02;;;;;;;2.55;0.38;;;;;;;3.92;62.45;98680.28;5046999;28;20025;-40
2024/01/15 08:05:28;;;;;;;0.50;0.40;;;;;;;4.07;62.14;98675.03;5045856;28;20095;-40
2024/01/15 08:07:53;;;;;;;1.10;0.57;;;;;;;3.86;61.62;98670.25;5041770;28;20037;-40
2024/01/15 08:10:19;;;;;;;0.65;0.43;;;;;;;4.39;59.89;98672.13;5044454;28;20044;-40
2024/01/15 08:12:44;;;;;;;0.90;0.63;;;;;;;4.17;59.78;98667.47;5045425;28;20037;-40
2024/01/15 08:15:10;;;;;;;0.35;0.30;;;;;;;4.33;59.34;98685.53;5045625;28;20045;-39
2024/01/15 08:17:35;;;;;;;0.22;0.22;;;;;;;4.54;58.85;98681.53;5044571;28;20040;-39
2024/01/15 08:20:01;;;;;;;0.40;0.22;;;;;;;4.73;59.05;98669.91;5021901;28;20029;-40
2024/01/15 08:22:26;;;;;;;0.32;0.32;;;;;;;4.58;60.16;98670.00;5047505;28;20033;-40
2024/01/15 08:24:52;;;;;;;13.75;1.17;;;;;;;4.60;60.43;98680.31;5046917;28;20036;-39
2024/01/15 08:27:17;;;;;;;13.40;2.95;;;;;;;4.30;62.66;98709.19;5044111;28;20095;-39
2024/01/15 08:29:44;;;;;;;5.38;1.27;;;;;;;4.18;64.49;98690.81;5044338;28;20041;-40
2024/01/15 08:32:13;;;;;;;0.45;0.40;;;;;;;4.43;64.29;98678.81;5046524;28;20524;-40
2024/01/15 08:34:39;;;;;;;4.38;2.40;;;;;;;4.07;65.07;98695.88;5039917;28;20025;-40
2024/01/15 08:37:04;;;;;;;1.75;0.68;;;;;;;4.10;65.23;98680.06;5046876;28;20094;-40
2024/01/15 08:39:30;;;;;;;0.13;0.13;;;;;;;4.21;65.01;98672.38;5045469;28;20456;-40
2024/01/15 08:41:55;;;;;;;0.40;0.30;;;;;;;4.22;64.30;98687.06;5029063;28;20053;-40
2024/01/15 08:44:20;;;;;;;0.10;0.10;;;;;;;4.53;63.56;98674.66;5027803;28;20041;-40
2024/01/15 08:46:46;;;;;;;0.98;0.85;;;;;;;4.28;62.90;98675.44;5043274;28;20040;-40
2024/01/15 08:49:11;;;;;;;2.63;1.27;;;;;;;4.31;63.65;98683.03;5047090;28;20571;-40
2024/01/15 08:51:37;;;;;;;0.50;0.35;;;;;;;4.14;63.37;98686.75;5010552;28;20112;-39
2024/01/15 08:54:03;;;;;;;0.47;0.47;;;;;;;4.31;63.03;98683.03;5045806;28;20029;-40
2024/01/15 08:56:28;;;;;;;1.52;0.93;;;;;;;4.14;62.42;98691.09;5025105;28;20033;-40
2024/01/15 08:58:54;;;;;;;2.53;0.85;;;;;;;4.47;62.44;98682.88;5044419;28;20030;-40
2024/01/15 09:01:19;;;;;;;0.25;0.25;;;;;;;4.65;61.35;98685.19;5045887;28;20033;-40
2024/01/15 09:03:46;;;;;;;3.60;0.77;;;;;;;4.49;61.71;98683.59;5048782;28;20036;-40
2024/01/15 09:06:11;;;;;;;0.35;0.25;;;;;;;4.62;62.74;98693.22;5046493;28;20110;-40
2024/01/15 09:08:40;;;;;;;0.73;0.47;;;;;;;4.56;61.73;98684.88;5044903;28;20051;-39
2024/01/15 09:11:06;;;;;;;1.85;0.45;;;;;;;4.50;61.78;98706.13;5046624;28;20037;-39
2024/01/15 09:13:31;;;;;;;7.93;1.52;;;;;;;4.12;63.53;98686.00;5048035;28;20522;-40
2024/01/15 09:15:58;;;;;;;0.30;0.30;;;;;;;4.35;63.29;98694.09;5045385;28;20218;-40
2024/01/15 09:18:23;;;;;;;0.77;0.30;;;;;;;4.49;62.42;98709.66;5055480;28;20037;-39
2024/01/15 09:20:49;;;;;;;1.08;0.50;;;;;;;4.20;62.31;98698.53;5049511;28;20040;-40
2024/01/15 09:23:15;;;;;;;0.20;0.20;;;;;;;4.94;62.66;98698.91;5047260;28;20403;-40
2024/01/15 09:25:40;;;;;;;0.10;0.10;;;;;;;4.87;61.53;98714.13;5045844;28;20037;-40
2024/01/15 09:28:06;;;;;;;0.73;0.63;;;;;;;5.13;61.67;98703.72;5044530;28;20033;-39
2024/01/15 09:30:32;;;;;;;0.93;0.57;;;;;;;4.92;61.48;98707.75;5048191;28;20056;-40
2024/01/15 09:32:58;;;;;;;1.38;1.27;;;;;;;4.87;61.94;98721.94;5050217;28;20029;-40
2024/01/15 09:35:23;;;;;;;0.63;0.63;;;;;;;4.55;62.83;98750.09;5046006;28;20672;-41
2024/01/15 09:37:48;;;;;;;1.35;0.77;;;;;;;4.54;63.34;98728.44;5046866;28;20044;-40
2024/01/15 09:40:15;;;;;;;0.60;0.60;;;;;;;4.58;62.88;98716.88;5046000;28;20029;-40
2024/01/15 09:42:40;;;;;;;0.60;0.52;;;;;;;4.56;62.41;98726.56;5043809;28;20036;-40
2024/01/15 09:45:07;;;;;;;0.90;0.57;;;;;;;4.52;62.97;98730.28;5047974;28;20087;-40
2024/01/15 09:47:32;;;;;;;1.10;1.00;;;;;;;4.70;62.18;98728.25;5046832;28;20507;-40
2024/01/15 09:49:58;;;;;;;2.95;0.77;;;;;;;4.85;62.12;98710.78;5055405;28;20039;-40
2024/01/15 09:52:25;;;;;;;1.88;0.75;;;;;;;4.88;61.87;98725.38;5040464;28;20036;-39
2024/01/15 09:54:51;;;;;;;4.68;0.73;;;;;;;4.58;62.88;98705.63;5037921;28;20060;-40
2024/01/15 09:57:17;;;;;;;3.05;0.65;;;;;;;4.56;62.38;98705.72;5042822;28;20029;-40
2024/01/15 09:59:43;;;;;;;0.10;0.10;;;;;;;4.57;61.76;98725.63;5051292;28;20032;-40
2024/01/15 10:02:13;;;;;;;0.13;0.13;;;;;;;4.84;61.39;98705.69;5045808;28;20552;-39
2024/01/15 10:04:38;;;;;;;0.30;0.30;;;;;;;4.45;60.80;98729.03;5047240;28;20044;-39
2024/01/15 10:07:07;;;;;;;0.60;0.47;;;;;;;4.66;60.51;98723.34;5028858;28;20033;-40
2024/01/15 10:09:32;;;;;;;2.45;1.20;;;;;;;4.49;60.24;98699.22;5045513;28;20052;-40
2024/01/15 10:11:58;;;;;;;2.50;0.82;;;;;;;4.32;59.99;98730.72;5046335;28;20065;-40
2024/01/15 10:14:24;;;;;;;0.22;0.22;;;;;;;4.46;60.29;98709.88;5047103;28;20036;-40
2024/01/15 10:16:49;;;;;;;0.45;0.40;;;;;;;4.42;59.88;98697.97;5046214;28;20043;-40
2024/01/15 10:19:15;;;;;;;0.10;0.10;;;;;;;4.68;59.52;98698.03;5049816;28;20045;-40
2024/01/15 10:21:40;;;;;;;0.30;0.30;;;;;;;4.58;59.82;98703.00;5045804;28;20032;-40
2024/01/15 10:24:06;;;;;;;0.30;0.28;;;;;;;4.40;60.93;98711.09;5050562;28;20025;-40
2024/01/15 10:26:32;;;;;;;0.57;0.45;;;;;;;4.04;62.16;98724.69;5046202;28;20029;-40
2024/01/15 10:29:00;;;;;;;0.20;0.20;;;;;;;4.00;66.66;98723.22;5045911;28;20041;-40
2024/01/15 10:31:26;;;;;;;7.32;1.02;;;;;;;3.95;67.67;98737.34;5040047;28;20037;-39
2024/01/15 10:33:52;;;;;;;1.00;0.93;;;;;;;3.73;67.20;98755.22;5047303;28;20673;-40
2024/01/15 10:36:18;;;;;;;8.70;1.27;;;;;;;3.71;70.54;98749.25;5045826;28;20029;-39
2024/01/15 10:38:44;;;;;;;1.08;1.08;;;;;;;3.75;64.38;98735.16;5043588;28;20036;-40
2024/01/15 10:41:10;;;;;;;1.70;0.65;;;;;;;3.69;63.33;98736.38;5047815;28;20040;-40
2024/01/15 10:43:35;;;;;;;1.55;0.22;;;;;;;3.99;61.56;98737.16;5046127;28;20036;-40
2024/01/15 10:46:01;;;;;;;0.40;0.22;;;;;;;3.96;61.07;98733.81;5046868;28;20025;-39
2024/01/15 10:48:28;;;;;;;0.80;0.65;;;;;;;3.81;60.70;98735.59;5045469;28;20025;-39
2024/01/15 10:50:54;;;;;;;2.05;0.93;;;;;;;3.59;61.43;98725.69;5038536;28;20020;-39
2024/01/15 10:53:21;;;;;;;0.22;0.22;;;;;;;4.04;60.51;98735.09;5041989;28;20091;-39
2024/01/15 10:55:48;;;;;;;0.30;0.30;;;;;;;4.07;60.76;98745.31;5044626;28;20036;-39
2024/01/15 10:58:14;;;;;;;1.55;0.70;;;;;;;4.03;61.34;98738.63;5044958;28;20071;-39
2024/01/15 11:00:40;;;;;;;0.13;0.13;;;;;;;4.03;61.39;98749.03;5045443;28;20029;-39
2024/01/15 11:03:06;;;;;;;0.82;0.82;;;;;;;4.17;60.92;98725.56;5042351;28;20036;-39
2024/01/15 11:05:59;;;;;;;0.22;0.22;;;;;;;4.11;60.59;98731.19;5038336;28;20103;-39
2024/01/15 11:08:25;;;;;;;0.38;0.25;;;;;;;3.98;60.58;98728.50;5043482;28;20052;-40
2024/01/15 11:10:52;;;;;;;0.40;0.30;;;;;;;4.08;60.00;98729.59;5046529;28;20102;-40
2024/01/15 11:13:32;;;;;;;0.47;0.30;;;;;;;3.76;59.19;98721.22;5047160;28;20047;-41
2024/01/15 11:16:03;;;;;;;0.98;0.45;;;;;;;3.97;59.01;98713.81;5043510;28;20029;-39
2024/01/15 11:18:31;;;;;;;1.80;1.58;;;;;;;3.85;59.37;98730.22;5019128;28;20032;-39
2024/01/15 11:21:23;;;;;;;1.95;1.05;;;;;;;3.79;60.01;98734.84;5021459;28;20049;-40
2024/01/15 11:23:57;;;;;;;2.55;1.92;;;;;;;4.00;61.82;98742.25;5017108;28;20095;-40
2024/01/15 11:26:51;;;;;;;1.05;0.75;;;;;;;4.04;63.82;98746.34;5022559;28;20040;-40
2024/01/15 11:29:31;;;;;;;0.77;0.73;;;;;;;3.78;65.20;98741.00;5020955;28;20044;-39
2024/01/15 11:32:07;;;;;;;0.20;0.20;;;;;;;4.13;64.17;98742.34;5040426;28;20086;-40
2024/01/15 11:34:53;;;;;;;0.68;0.65;;;;;;;4.25;63.28;98744.16;5038206;28;20411;-39
2024/01/15 11:37:19;;;;;;;0.43;0.30;;;;;;;4.19;62.04;98749.75;5042146;28;20028;-40